Time;durP1;ratioP1;P1;durP2;ratioP2;P2;SDS_P1;SDS_P2;PMS_P1;PMS_P2;Temp;Humidity;BMP_temperature;BMP_pressure;BME280_temperature;BME280_humidity;BME280_pressure;Samples;Min_cycle;Max_cycle;Signal;HPM_P1;HPM_P2
2022/05/07 00:13:01;;;;;;;6.47;3.13;;;;;;;8.73;81.20;97644.28;5099581;27;20387;-65
2022/05/07 00:15:28;;;;;;;5.10;2.72;;;;;;;8.53;82.00;97641.59;5087951;28;20055;-64
2022/05/07 00:18:05;;;;;;;6.25;2.97;;;;;;;7.83;81.90;97561.81;5077759;28;20841;-60
2022/05/07 00:20:34;;;;;;;7.00;2.53;;;;;;;7.80;82.80;97590.88;5073253;28;20433;-59
2022/05/07 00:23:01;;;;;;;8.18;3.28;;;;;;;7.96;84.07;97644.28;5089501;28;20056;-63
2022/05/07 00:25:29;;;;;;;5.45;3.22;;;;;;;7.84;85.44;97657.22;5077512;28;20465;-60
2022/05/07 00:27:56;;;;;;;8.20;3.50;;;;;;;7.66;86.70;97645.53;5079337;28;20533;-64
2022/05/07 00:30:22;;;;;;;7.35;3.17;;;;;;;6.67;86.75;97499.59;5077798;28;20052;-59
2022/05/07 00:32:49;;;;;;;10.02;3.10;;;;;;;7.08;88.16;97572.03;5079108;28;20052;-60
2022/05/07 00:35:16;;;;;;;11.15;3.47;;;;;;;7.59;88.47;97640.53;5078897;28;20495;-60
2022/05/07 00:37:43;;;;;;;8.40;3.53;;;;;;;7.45;87.17;97628.97;5077599;28;20056;-64
2022/05/07 00:40:10;;;;;;;7.15;3.72;;;;;;;7.35;88.15;97640.38;5078746;28;20064;-65
2022/05/07 00:42:38;;;;;;;5.00;3.17;;;;;;;7.18;89.44;97631.44;5075565;28;20055;-59
2022/05/07 00:45:05;;;;;;;7.18;3.00;;;;;;;6.86;90.95;97590.81;5059140;28;20071;-64
2022/05/07 00:47:32;;;;;;;7.03;3.15;;;;;;;7.18;90.65;97640.50;5056818;28;20048;-66
2022/05/07 00:52:46;;;;;;;9.13;3.25;;;;;;;7.18;91.65;97623.97;5058613;28;20056;-59
2022/05/07 00:55:14;;;;;;;6.60;3.28;;;;;;;7.19;91.13;97624.81;5073625;28;20060;-59
2022/05/07 00:57:41;;;;;;;6.53;3.53;;;;;;;7.11;89.42;97611.88;5058045;28;20092;-59
2022/05/07 01:00:09;;;;;;;5.28;3.17;;;;;;;7.14;90.73;97617.53;5073167;28;20464;-58
2022/05/07 01:02:37;;;;;;;8.98;4.10;;;;;;;6.60;90.64;97524.91;5057852;28;20056;-66
2022/05/07 01:05:08;;;;;;;5.35;3.15;;;;;;;7.15;90.02;97601.78;5072027;28;20114;-59
2022/05/07 01:07:34;;;;;;;8.20;3.40;;;;;;;7.25;90.87;97613.25;5079664;28;20526;-59
2022/05/07 01:10:05;;;;;;;10.45;3.92;;;;;;;6.85;89.93;97567.97;5078784;28;20533;-65
2022/05/07 01:12:33;;;;;;;9.80;4.40;;;;;;;7.26;89.99;97597.50;5072958;28;20052;-58
2022/05/07 01:15:00;;;;;;;8.25;3.20;;;;;;;7.47;88.93;97621.19;5066255;28;20052;-61
2022/05/07 01:17:31;;;;;;;5.57;3.17;;;;;;;7.14;89.40;97576.22;5066697;28;20060;-61
2022/05/07 01:19:58;;;;;;;6.20;3.05;;;;;;;7.34;90.07;97611.22;5066392;28;20064;-65
2022/05/07 01:22:29;;;;;;;6.47;3.72;;;;;;;7.10;90.55;97566.19;5066477;28;20143;-64
2022/05/07 01:24:56;;;;;;;8.80;3.92;;;;;;;7.32;90.80;97605.25;5066553;28;20059;-65
2022/05/07 01:27:22;;;;;;;8.75;4.07;;;;;;;7.33;90.43;97606.84;5066681;28;20053;-60
2022/05/07 01:29:49;;;;;;;10.18;4.63;;;;;;;6.86;89.39;97542.03;5066323;28;20079;-59
2022/05/07 01:32:16;;;;;;;8.00;4.05;;;;;;;7.16;90.13;97609.72;5064899;28;20060;-66
2022/05/07 01:34:42;;;;;;;9.70;4.75;;;;;;;7.25;90.78;97604.97;5064332;28;20044;-58
2022/05/07 01:37:09;;;;;;;7.25;4.05;;;;;;;7.27;89.62;97599.91;4870745;28;5001781;-59
2022/05/07 01:39:36;;;;;;;4.85;3.17;;;;;;;7.14;90.73;97598.25;5066082;28;20565;-65
2022/05/07 01:42:03;;;;;;;7.20;3.28;;;;;;;6.70;91.28;97532.75;5066003;28;20067;-65
2022/05/07 01:44:29;;;;;;;11.55;4.45;;;;;;;6.98;91.52;97575.19;5064644;28;20075;-61
2022/05/07 01:49:41;;;;;;;5.75;3.25;;;;;;;7.17;91.04;97594.84;5065795;28;20173;-57
2022/05/07 01:52:08;;;;;;;7.35;3.75;;;;;;;6.76;90.22;97528.69;5064712;28;20052;-60
2022/05/07 01:54:34;;;;;;;6.97;3.88;;;;;;;7.04;91.11;97584.88;5066079;28;20052;-63
2022/05/07 01:57:01;;;;;;;8.98;3.97;;;;;;;6.47;91.33;97487.41;5063950;28;20533;-60
2022/05/07 01:59:28;;;;;;;9.10;3.95;;;;;;;7.06;91.42;97588.09;5065360;28;20126;-60
2022/05/07 02:01:54;;;;;;;7.13;3.72;;;;;;;7.03;91.05;97577.75;5063743;28;20060;-65
2022/05/07 02:04:21;;;;;;;7.85;4.00;;;;;;;6.70;92.28;97541.00;5063754;28;20048;-57
2022/05/07 02:06:48;;;;;;;7.32;3.72;;;;;;;7.06;90.39;97588.09;5064291;28;20053;-66
2022/05/07 02:09:14;;;;;;;8.05;3.92;;;;;;;7.01;90.78;97580.03;5064334;28;20060;-58
2022/05/07 02:11:41;;;;;;;10.75;4.25;;;;;;;6.35;90.34;97479.09;5064906;28;20073;-61
2022/05/07 02:14:08;;;;;;;16.00;4.95;;;;;;;7.00;90.83;97578.41;5064251;28;20438;-64
2022/05/07 02:16:35;;;;;;;13.77;4.97;;;;;;;7.06;90.62;97577.09;5065577;28;20061;-65
2022/05/07 02:19:02;;;;;;;10.90;4.75;;;;;;;7.00;90.23;97574.84;5063871;28;20080;-64
2022/05/07 02:21:29;;;;;;;8.18;3.72;;;;;;;6.92;90.97;97582.03;5065322;28;20494;-59
2022/05/07 02:23:56;;;;;;;10.80;4.20;;;;;;;6.99;91.49;97582.31;5064407;28;20135;-66
2022/05/07 02:26:23;;;;;;;9.73;3.90;;;;;;;7.03;91.12;97583.25;5065004;28;20106;-64
2022/05/07 02:28:49;;;;;;;9.02;4.25;;;;;;;7.00;91.68;97583.13;5064968;28;20052;-65
2022/05/07 02:31:16;;;;;;;10.27;3.75;;;;;;;6.95;92.08;97578.63;5063267;28;20048;-64
2022/05/07 02:33:43;;;;;;;7.70;3.88;;;;;;;6.88;91.16;97559.06;5064982;28;20048;-64
2022/05/07 02:36:09;;;;;;;7.05;4.10;;;;;;;7.07;91.34;97577.88;5065080;28;20457;-59
2022/05/07 02:38:38;;;;;;;9.00;4.63;;;;;;;7.13;90.66;97587.53;5065000;28;20052;-64
2022/05/07 02:43:50;;;;;;;12.32;4.00;;;;;;;6.62;89.49;97510.81;5064979;28;20067;-65
2022/05/07 02:46:17;;;;;;;12.05;5.10;;;;;;;6.59;89.35;97517.75;5064454;28;20052;-64
2022/05/07 02:48:46;;;;;;;10.88;5.20;;;;;;;6.99;90.05;97559.44;5064598;28;20045;-61
2022/05/07 02:51:13;;;;;;;9.07;4.32;;;;;;;6.81;90.99;97557.97;5064722;28;20048;-64
2022/05/07 02:53:40;;;;;;;10.35;4.90;;;;;;;6.62;93.57;97565.84;5064674;28;20056;-64
2022/05/07 02:56:07;;;;;;;9.85;5.05;;;;;;;6.63;94.41;97562.78;5064482;28;20067;-59
2022/05/07 02:58:34;;;;;;;9.40;4.93;;;;;;;6.63;95.34;97565.50;5064320;28;20055;-59
2022/05/07 03:01:00;;;;;;;10.18;5.15;;;;;;;6.66;95.50;97564.84;5062823;28;20900;-65
2022/05/07 03:03:27;;;;;;;10.15;5.22;;;;;;;6.61;95.37;97569.75;5064375;28;20049;-64
2022/05/07 03:05:55;;;;;;;10.48;5.25;;;;;;;6.64;95.15;97569.88;5062741;28;20623;-65
2022/05/07 03:08:23;;;;;;;10.52;4.82;;;;;;;6.62;95.15;97558.41;5063994;28;20514;-59
2022/05/07 03:10:50;;;;;;;13.07;5.25;;;;;;;6.69;94.51;97566.13;5062974;28;20147;-58
2022/05/07 03:13:17;;;;;;;16.10;5.22;;;;;;;6.75;94.81;97560.09;5064197;28;20052;-58
2022/05/07 03:15:44;;;;;;;8.88;5.10;;;;;;;6.74;93.63;97557.69;5057120;28;20396;-59
2022/05/07 03:18:12;;;;;;;11.70;4.65;;;;;;;6.69;94.15;97558.69;5059157;28;20060;-65
2022/05/07 03:20:40;;;;;;;10.57;5.05;;;;;;;6.54;95.17;97564.75;5043954;28;20044;-58
2022/05/07 03:23:07;;;;;;;13.27;5.78;;;;;;;6.48;95.77;97566.06;5044252;28;20076;-65
2022/05/07 03:25:34;;;;;;;9.52;5.68;;;;;;;6.48;96.34;97554.28;5058771;28;20052;-65
2022/05/07 03:28:00;;;;;;;13.38;7.35;;;;;;;6.74;94.57;97564.00;5059062;28;20053;-65
2022/05/07 03:30:27;;;;;;;14.98;7.00;;;;;;;6.81;94.08;97564.25;5059048;28;20052;-60
2022/05/07 03:32:54;;;;;;;16.90;5.50;;;;;;;6.98;92.49;97572.44;5043985;28;20471;-59
2022/05/07 03:35:21;;;;;;;9.73;5.18;;;;;;;6.61;93.14;97511.94;5043928;28;20053;-58
2022/05/07 03:37:47;;;;;;;9.60;4.65;;;;;;;6.88;93.34;97558.22;5042307;28;20466;-58
2022/05/07 03:40:14;;;;;;;13.38;6.13;;;;;;;6.98;93.20;97575.19;5059103;28;20072;-65
2022/05/07 03:42:43;;;;;;;14.20;5.95;;;;;;;7.14;93.09;97578.16;5043350;28;20515;-59
2022/05/07 03:45:10;;;;;;;14.65;7.10;;;;;;;6.93;92.83;97545.09;5043387;28;20048;-61
2022/05/07 03:47:37;;;;;;;9.80;5.13;;;;;;;7.00;91.62;97541.81;5043239;28;20060;-58
2022/05/07 03:50:04;;;;;;;9.20;5.20;;;;;;;7.42;90.18;97580.03;5041975;28;20045;-65
2022/05/07 03:55:16;;;;;;;11.35;4.90;;;;;;;7.66;89.48;97574.66;5043549;28;20064;-65
2022/05/07 03:57:43;;;;;;;9.57;5.00;;;;;;;7.77;88.38;97574.22;5044303;28;20063;-65
2022/05/07 04:00:10;;;;;;;7.95;4.93;;;;;;;8.00;88.64;97584.53;5044158;28;20068;-58
2022/05/07 04:02:37;;;;;;;12.73;5.30;;;;;;;8.23;87.75;97579.44;5043894;28;20408;-59
2022/05/07 04:05:04;;;;;;;9.77;4.70;;;;;;;8.33;87.78;97581.78;5054432;28;20126;-65
2022/05/07 04:07:31;;;;;;;12.95;5.57;;;;;;;8.41;87.02;97573.38;5064085;28;20056;-58
2022/05/07 04:09:58;;;;;;;12.13;5.55;;;;;;;8.68;85.91;97580.16;5062056;28;20052;-65
2022/05/07 04:12:25;;;;;;;14.45;6.13;;;;;;;8.71;85.47;97582.28;5063450;28;20063;-60
2022/05/07 04:14:51;;;;;;;11.52;5.80;;;;;;;8.76;84.90;97579.25;5062519;28;20072;-58
2022/05/07 04:17:18;;;;;;;12.00;5.90;;;;;;;9.08;83.72;97586.59;5062307;28;20072;-60
2022/05/07 04:19:45;;;;;;;11.13;6.07;;;;;;;8.82;83.71;97558.56;5063349;28;20052;-58
2022/05/07 04:22:12;;;;;;;14.38;6.72;;;;;;;9.28;83.04;97585.66;5063446;28;20434;-61
2022/05/07 04:24:39;;;;;;;11.18;5.90;;;;;;;9.01;82.65;97529.16;5063322;28;20061;-65
2022/05/07 04:27:05;;;;;;;9.82;6.07;;;;;;;9.33;82.31;97552.22;5063624;28;20075;-60
2022/05/07 04:29:32;;;;;;;12.00;5.50;;;;;;;8.82;81.86;97489.50;5063785;28;20052;-65
2022/05/07 04:31:58;;;;;;;10.05;5.68;;;;;;;9.61;81.63;97577.16;5063654;28;20053;-59
2022/05/07 04:34:28;;;;;;;11.23;6.40;;;;;;;9.73;82.15;97586.22;5062219;28;20063;-65
2022/05/07 04:36:55;;;;;;;12.60;5.68;;;;;;;9.96;80.14;97584.50;5063304;28;20055;-66
2022/05/07 04:39:22;;;;;;;10.13;6.18;;;;;;;10.09;79.79;97599.94;5063248;28;20052;-59
2022/05/07 04:41:48;;;;;;;10.88;5.60;;;;;;;10.32;78.43;97575.25;5063389;28;20063;-59
2022/05/07 04:44:15;;;;;;;10.32;6.00;;;;;;;10.03;78.50;97548.72;5063501;28;20538;-59
2022/05/07 04:46:41;;;;;;;19.30;7.15;;;;;;;10.02;77.54;97515.88;5062230;28;20052;-65
2022/05/07 04:49:08;;;;;;;14.60;6.20;;;;;;;10.75;78.04;97593.75;5064888;28;20072;-60
2022/05/07 04:51:35;;;;;;;8.93;5.97;;;;;;;10.99;76.47;97590.75;5066380;28;20052;-59
2022/05/07 04:54:07;;;;;;;14.73;6.38;;;;;;;11.19;76.44;97592.44;5066920;28;20865;-66
2022/05/07 04:56:34;;;;;;;8.27;5.22;;;;;;;11.24;75.14;97594.97;5065261;28;20052;-59
2022/05/07 04:59:01;;;;;;;10.40;5.45;;;;;;;10.99;75.10;97543.63;5066827;28;20121;-66
2022/05/07 05:01:27;;;;;;;12.70;5.50;;;;;;;11.38;75.05;97567.53;5067022;28;20067;-60
2022/05/07 05:03:54;;;;;;;12.77;6.07;;;;;;;11.80;73.62;97590.66;5082135;28;20060;-60
2022/05/07 05:06:21;;;;;;;10.40;5.40;;;;;;;11.88;73.79;97592.44;5066605;28;20890;-60
2022/05/07 05:08:48;;;;;;;9.48;5.13;;;;;;;11.87;72.65;97565.84;5066243;28;20052;-59
2022/05/07 05:11:14;;;;;;;6.13;4.70;;;;;;;11.77;72.26;97560.88;5066196;28;20048;-66
2022/05/07 05:13:41;;;;;;;8.93;5.07;;;;;;;12.26;72.12;97592.41;5066038;28;20059;-59
2022/05/07 05:16:08;;;;;;;11.32;5.35;;;;;;;12.11;72.18;97540.53;5065106;28;20056;-66
2022/05/07 05:18:34;;;;;;;7.97;5.32;;;;;;;12.29;71.08;97560.28;5064841;28;20135;-66
2022/05/07 05:21:01;;;;;;;9.60;5.28;;;;;;;12.67;72.61;97597.13;5066627;28;20048;-66
2022/05/07 05:23:29;;;;;;;8.60;5.63;;;;;;;12.62;72.73;97554.94;5064935;28;20080;-61
2022/05/07 05:25:56;;;;;;;9.70;4.97;;;;;;;12.35;72.70;97515.19;5064354;28;20518;-60
2022/05/07 05:28:23;;;;;;;8.20;5.20;;;;;;;12.71;74.02;97577.75;5064547;28;20056;-67
2022/05/07 05:30:55;;;;;;;14.10;5.75;;;;;;;12.72;73.27;97555.13;5064434;28;20048;-60
2022/05/07 05:33:22;;;;;;;12.85;5.40;;;;;;;12.85;72.50;97564.88;5064938;28;20045;-61
2022/05/07 05:35:49;;;;;;;10.75;6.22;;;;;;;12.74;71.73;97536.09;5065839;28;20455;-59
2022/05/07 05:38:16;;;;;;;8.40;5.18;;;;;;;13.34;70.77;97590.72;5065964;28;20056;-66
2022/05/07 05:40:43;;;;;;;9.23;5.13;;;;;;;13.06;70.11;97539.41;5065850;28;20059;-67
2022/05/07 05:43:10;;;;;;;10.63;5.53;;;;;;;13.44;68.94;97592.84;5064689;28;20063;-60
2022/05/07 05:45:39;;;;;;;9.43;5.03;;;;;;;13.60;66.78;97585.13;5064178;28;20060;-60
2022/05/07 05:48:06;;;;;;;12.60;5.25;;;;;;;13.68;66.43;97592.41;5066248;28;20052;-67
2022/05/07 05:50:33;;;;;;;10.63;5.35;;;;;;;12.43;67.42;97447.44;5064320;28;20426;-61
2022/05/07 05:53:00;;;;;;;16.13;5.72;;;;;;;12.69;68.75;97586.47;5064370;28;20059;-65
2022/05/07 05:55:27;;;;;;;11.93;5.38;;;;;;;12.90;69.00;97527.63;5065399;28;20581;-66
2022/05/07 05:57:53;;;;;;;8.43;4.90;;;;;;;12.71;67.55;97486.03;5064145;28;20048;-61
2022/05/07 06:00:20;;;;;;;9.23;5.10;;;;;;;13.00;66.08;97522.25;5080600;28;20075;-66
2022/05/07 06:02:47;;;;;;;11.15;5.00;;;;;;;13.01;66.63;97550.88;5063468;28;20125;-66
2022/05/07 06:05:16;;;;;;;9.23;4.65;;;;;;;13.48;66.08;97599.25;5077847;28;20538;-59
2022/05/07 06:07:42;;;;;;;9.95;4.68;;;;;;;13.43;65.76;97546.72;5063939;28;20095;-67
2022/05/07 06:10:09;;;;;;;9.93;4.60;;;;;;;14.22;64.44;97607.81;5065333;28;20060;-67
2022/05/07 06:12:36;;;;;;;7.55;4.72;;;;;;;14.46;62.23;97598.97;5063456;28;20438;-60
2022/05/07 06:15:04;;;;;;;11.32;4.93;;;;;;;14.64;61.98;97591.56;5065277;28;20067;-59
2022/05/07 06:17:30;;;;;;;5.95;4.30;;;;;;;14.86;61.57;97590.56;5065179;28;20518;-66
2022/05/07 06:19:57;;;;;;;9.70;5.00;;;;;;;13.81;62.38;97539.25;5065188;28;20053;-68
2022/05/07 06:22:25;;;;;;;6.30;4.90;;;;;;;14.13;61.77;97590.59;5065803;28;20503;-68
2022/05/07 06:27:37;;;;;;;9.93;4.72;;;;;;;15.06;57.96;97595.53;5064519;28;20113;-61
2022/05/07 06:30:05;;;;;;;13.40;4.88;;;;;;;15.17;57.04;97571.31;5063539;28;20052;-62
2022/05/07 06:32:36;;;;;;;5.20;3.83;;;;;;;14.20;57.85;97551.66;5064970;28;20075;-61
2022/05/07 06:35:05;;;;;;;9.77;4.35;;;;;;;14.37;59.43;97584.53;5064784;28;20052;-67
2022/05/07 06:37:33;;;;;;;9.75;4.43;;;;;;;14.97;58.40;97588.69;5063711;28;20060;-65
2022/05/07 06:40:01;;;;;;;8.95;4.50;;;;;;;15.37;58.02;97588.59;5064880;28;20059;-59
2022/05/07 06:42:28;;;;;;;7.55;4.90;;;;;;;14.81;57.75;97563.84;5064777;28;20066;-60
2022/05/07 06:44:55;;;;;;;8.13;4.72;;;;;;;14.77;57.10;97542.69;5063262;28;20052;-58
2022/05/07 06:47:30;;;;;;;6.45;4.45;;;;;;;15.53;57.02;97582.75;5065089;28;20068;-65
2022/05/07 06:49:57;;;;;;;14.60;4.47;;;;;;;15.89;55.59;97582.56;5064009;28;20542;-68
2022/05/07 06:52:25;;;;;;;9.45;5.03;;;;;;;16.05;54.94;97577.44;5064098;28;20903;-67
2022/05/07 06:54:52;;;;;;;10.18;4.93;;;;;;;16.09;54.06;97592.22;5062823;28;20057;-66
2022/05/07 06:57:18;;;;;;;8.13;4.57;;;;;;;15.97;54.62;97561.03;5064043;28;20048;-65
2022/05/07 06:59:45;;;;;;;9.20;5.03;;;;;;;16.43;52.89;97582.38;5062194;28;20514;-66
2022/05/07 07:02:12;;;;;;;11.93;4.65;;;;;;;15.81;53.11;97557.78;5062414;28;20574;-60
2022/05/07 07:04:39;;;;;;;8.27;5.00;;;;;;;16.44;52.50;97575.63;5063846;28;20059;-61
2022/05/07 07:07:07;;;;;;;10.20;4.43;;;;;;;16.33;50.18;97552.38;5064161;28;20440;-60
2022/05/07 07:22:25;;;;;;;8.77;4.35;;;;;;;17.73;47.54;97567.66;5121541;27;20411;-66
2022/05/07 07:24:52;;;;;;;7.05;4.38;;;;;;;17.98;48.80;97579.59;5121321;27;20043;-67
2022/05/07 07:27:24;;;;;;;9.35;4.40;;;;;;;18.02;48.19;97571.94;5120312;28;20142;-66
2022/05/07 07:29:52;;;;;;;7.35;4.30;;;;;;;16.89;49.25;97517.31;5121508;27;20047;-65
2022/05/07 07:32:19;;;;;;;7.72;3.83;;;;;;;17.33;50.72;97584.88;5120618;28;20078;-59
2022/05/07 07:34:46;;;;;;;10.45;4.72;;;;;;;16.73;51.20;97536.50;5121611;27;20122;-59
2022/05/07 07:37:13;;;;;;;8.48;4.55;;;;;;;16.77;52.93;97585.66;5120973;27;20043;-62
2022/05/07 07:39:40;;;;;;;13.50;5.75;;;;;;;16.52;52.04;97554.88;5119733;28;20156;-61
2022/05/07 07:42:07;;;;;;;8.15;4.00;;;;;;;16.33;50.98;97546.78;5121326;27;20500;-67
2022/05/07 07:44:34;;;;;;;5.28;4.45;;;;;;;16.66;52.69;97581.28;5121228;27;20128;-66
2022/05/07 07:49:46;;;;;;;7.60;4.28;;;;;;;16.80;50.37;97582.09;5120744;27;20487;-65
2022/05/07 07:52:13;;;;;;;5.70;3.38;;;;;;;16.47;50.78;97583.22;5120572;27;20527;-67
2022/05/07 07:54:40;;;;;;;9.38;4.07;;;;;;;16.76;50.78;97586.06;5119436;28;20524;-66
2022/05/07 07:57:07;;;;;;;8.52;4.13;;;;;;;17.01;50.83;97582.09;5108673;27;20056;-65
2022/05/07 07:59:34;;;;;;;6.75;4.20;;;;;;;16.76;50.97;97578.47;5113191;28;20477;-67
2022/05/07 08:02:00;;;;;;;9.40;4.07;;;;;;;17.16;49.88;97560.50;5098917;28;20058;-66
2022/05/07 08:04:27;;;;;;;10.02;4.72;;;;;;;17.39;50.43;97569.28;5100596;28;20059;-63
2022/05/07 08:12:26;;;;;;;7.18;4.22;;;;;;;17.35;52.50;97574.09;5094009;28;20044;-66
2022/05/07 08:14:53;;;;;;;7.72;4.60;;;;;;;17.41;50.20;97567.69;5079977;28;20059;-66
2022/05/07 08:17:20;;;;;;;9.15;4.18;;;;;;;17.15;51.22;97584.13;5079458;28;20052;-66
2022/05/07 08:19:48;;;;;;;5.13;4.13;;;;;;;17.14;51.17;97487.31;5079691;28;20059;-66
2022/05/07 08:22:15;;;;;;;7.72;4.72;;;;;;;17.93;49.96;97582.81;5072066;28;20065;-65
2022/05/07 08:24:42;;;;;;;8.73;4.85;;;;;;;17.95;51.05;97575.59;5066467;28;20071;-65
2022/05/07 08:27:08;;;;;;;6.30;4.85;;;;;;;17.52;49.83;97467.66;5064255;28;20063;-65
2022/05/07 08:29:35;;;;;;;7.72;4.82;;;;;;;17.30;50.49;97498.88;5065785;28;20143;-66
2022/05/07 08:32:03;;;;;;;8.15;5.00;;;;;;;18.15;50.10;97567.50;5064549;28;20052;-66
2022/05/07 08:34:30;;;;;;;5.25;4.75;;;;;;;18.06;50.74;97567.16;5065779;28;20495;-65
2022/05/07 08:37:00;;;;;;;6.13;3.83;;;;;;;17.64;49.97;97570.88;5064477;28;20480;-62
2022/05/07 08:39:27;;;;;;;10.02;4.20;;;;;;;17.81;50.42;97566.44;5063958;28;20044;-60
2022/05/07 08:41:56;;;;;;;8.10;4.75;;;;;;;17.70;50.92;97562.84;5066141;28;20091;-60
2022/05/07 08:44:24;;;;;;;8.55;5.07;;;;;;;18.40;50.97;97573.03;5065490;28;20454;-59
2022/05/07 08:46:51;;;;;;;8.10;5.15;;;;;;;18.20;50.00;97536.22;5065847;28;20048;-59
2022/05/07 08:49:18;;;;;;;6.97;4.97;;;;;;;19.06;48.24;97561.34;5064290;28;20484;-60
2022/05/07 08:51:47;;;;;;;7.75;4.82;;;;;;;19.13;47.81;97550.06;5065438;28;20056;-61
2022/05/07 08:54:14;;;;;;;7.82;4.53;;;;;;;18.98;47.04;97570.25;5064794;28;20049;-61
2022/05/07 08:56:41;;;;;;;6.68;4.55;;;;;;;19.10;47.64;97499.53;5065387;28;20562;-59
2022/05/07 08:59:08;;;;;;;10.95;4.97;;;;;;;19.07;48.88;97543.31;5065506;28;20080;-60
2022/05/07 09:01:35;;;;;;;10.73;5.40;;;;;;;18.36;46.46;97424.34;5065611;28;20055;-58
2022/05/07 09:04:11;;;;;;;7.15;4.80;;;;;;;19.78;45.70;97567.94;5065726;28;20147;-65
2022/05/07 09:06:38;;;;;;;7.13;5.70;;;;;;;18.86;46.54;97473.28;5065514;28;20494;-66
2022/05/07 09:09:06;;;;;;;7.97;5.32;;;;;;;19.52;45.66;97488.69;5064299;28;20094;-65
2022/05/07 09:11:42;;;;;;;6.60;4.70;;;;;;;20.19;44.09;97577.13;5080387;28;20056;-63
2022/05/07 09:14:10;;;;;;;7.88;4.93;;;;;;;20.07;43.08;97507.34;5085283;28;20052;-65
2022/05/07 09:16:59;;;;;;;12.02;5.93;;;;;;;20.78;43.89;97558.66;5085272;28;20056;-65
2022/05/07 09:19:30;;;;;;;8.77;5.32;;;;;;;20.16;44.80;97559.09;5084264;28;20058;-64
2022/05/07 09:22:11;;;;;;;8.68;5.22;;;;;;;20.52;44.90;97557.41;5083538;28;20059;-60
2022/05/07 09:24:39;;;;;;;9.30;4.47;;;;;;;20.79;43.72;97554.59;5085050;28;20516;-59
2022/05/07 09:27:06;;;;;;;6.70;4.72;;;;;;;21.25;43.15;97534.97;5083702;28;20075;-59
2022/05/07 09:29:34;;;;;;;9.13;5.22;;;;;;;21.34;43.62;97543.66;5085060;28;20051;-62
2022/05/07 09:32:15;;;;;;;7.93;5.60;;;;;;;21.29;44.08;97537.75;5083914;28;20079;-59
2022/05/07 09:37:36;;;;;;;10.88;5.50;;;;;;;20.81;44.59;97509.91;5085175;28;20051;-60
2022/05/07 09:40:11;;;;;;;6.57;4.32;;;;;;;20.68;43.47;97542.69;5084438;28;20059;-60
2022/05/07 09:42:39;;;;;;;5.70;4.18;;;;;;;20.20;45.07;97528.09;5085040;28;20105;-59
2022/05/07 09:45:07;;;;;;;6.72;4.60;;;;;;;19.26;46.84;97539.94;5084780;28;20080;-58
2022/05/07 09:47:34;;;;;;;12.38;5.93;;;;;;;19.84;45.40;97526.91;5085328;28;20051;-60
2022/05/07 09:50:20;;;;;;;7.80;5.68;;;;;;;19.50;45.55;97538.94;5084968;28;20058;-61
2022/05/07 09:58:20;;;;;;;14.27;5.47;;;;;;;19.53;45.01;97495.94;5084949;28;20616;-59
2022/05/07 10:01:10;;;;;;;15.43;7.30;;;;;;;20.26;44.79;97506.72;5084708;28;20131;-59
2022/05/07 10:03:48;;;;;;;10.13;5.15;;;;;;;20.51;44.19;97512.78;5073249;28;20415;-58
2022/05/07 10:06:29;;;;;;;11.75;6.10;;;;;;;20.89;44.31;97514.22;5028504;28;20045;-59
2022/05/07 10:09:36;;;;;;;7.03;5.20;;;;;;;20.55;42.40;97469.28;5044331;28;20159;-59
2022/05/07 10:12:03;;;;;;;6.72;4.93;;;;;;;19.44;44.63;97520.91;5042501;28;20063;-60
2022/05/07 10:14:31;;;;;;;7.30;5.03;;;;;;;20.08;44.93;97509.72;5042786;28;20506;-63
2022/05/07 10:17:05;;;;;;;7.95;5.30;;;;;;;20.82;42.50;97519.94;5042521;28;20573;-59
2022/05/07 10:20:04;;;;;;;12.18;5.20;;;;;;;21.00;41.71;97514.88;5043824;28;20515;-61
2022/05/07 10:22:31;;;;;;;7.50;5.82;;;;;;;21.34;41.51;97490.13;5044149;28;20088;-61
2022/05/07 10:25:12;;;;;;;7.80;5.65;;;;;;;21.49;40.11;97502.75;5044382;28;20076;-63
2022/05/07 10:27:42;;;;;;;9.35;5.40;;;;;;;20.45;42.01;97503.22;5042584;28;20140;-66
2022/05/07 10:30:12;;;;;;;12.82;5.70;;;;;;;21.17;41.72;97496.88;5042249;28;20131;-60
2022/05/07 10:32:57;;;;;;;12.52;6.88;;;;;;;21.49;41.63;97497.09;5043421;28;20060;-63
2022/05/07 10:35:53;;;;;;;5.93;5.20;;;;;;;21.85;40.70;97491.59;5036163;28;20084;-60
2022/05/07 10:38:23;;;;;;;6.68;4.60;;;;;;;22.01;39.60;97494.47;5024011;28;20486;-62
2022/05/07 10:40:54;;;;;;;12.25;6.90;;;;;;;21.83;40.68;97477.91;5024080;28;20483;-59
2022/05/07 10:43:36;;;;;;;12.25;6.50;;;;;;;22.33;39.56;97480.50;5024161;28;20064;-64
2022/05/07 10:46:08;;;;;;;5.95;5.35;;;;;;;22.48;37.76;97500.75;5023920;28;20163;-64
2022/05/07 10:48:47;;;;;;;7.60;5.50;;;;;;;22.20;38.17;97451.34;5039296;28;20519;-64
2022/05/07 10:51:27;;;;;;;8.52;4.72;;;;;;;22.59;37.77;97484.38;5023798;28;20646;-63
2022/05/07 10:54:00;;;;;;;8.95;5.15;;;;;;;22.02;38.27;97479.94;5023556;28;20128;-63
2022/05/07 10:56:32;;;;;;;11.90;6.38;;;;;;;21.75;39.29;97481.31;5023694;28;20057;-68
2022/05/07 10:59:00;;;;;;;6.45;4.60;;;;;;;22.03;38.83;97487.19;5023733;28;20083;-64
2022/05/07 11:01:31;;;;;;;9.52;5.45;;;;;;;21.86;37.85;97468.59;5022049;28;20061;-65
2022/05/07 11:04:05;;;;;;;6.93;5.35;;;;;;;22.10;38.82;97470.09;5023602;28;20053;-61
2022/05/07 11:06:52;;;;;;;9.00;4.65;;;;;;;22.54;37.10;97470.78;5023611;28;20432;-62
2022/05/07 11:09:22;;;;;;;8.48;4.82;;;;;;;22.59;37.33;97467.44;5024093;28;20067;-60
2022/05/07 11:11:57;;;;;;;12.18;4.40;;;;;;;22.73;37.09;97470.69;5023989;28;20085;-61
2022/05/07 11:14:34;;;;;;;6.65;4.28;;;;;;;22.69;36.90;97469.19;5023164;28;20053;-65
2022/05/07 11:17:04;;;;;;;6.45;4.45;;;;;;;22.92;36.56;97423.84;5022234;28;20515;-68
2022/05/07 11:19:35;;;;;;;9.90;4.95;;;;;;;23.32;36.41;97447.81;5022144;28;20072;-59
2022/05/07 11:22:05;;;;;;;4.60;4.13;;;;;;;23.06;35.94;97435.53;5023080;28;20057;-59
2022/05/07 11:24:32;;;;;;;5.82;4.28;;;;;;;23.41;35.77;97464.97;5021676;28;20053;-62
2022/05/07 11:27:07;;;;;;;5.55;4.35;;;;;;;23.60;35.41;97464.81;5022165;28;20144;-65
2022/05/07 11:29:34;;;;;;;6.88;4.47;;;;;;;23.45;35.68;97434.56;5023093;28;20134;-64
2022/05/07 11:32:09;;;;;;;6.40;4.47;;;;;;;23.22;36.33;97454.56;5023117;28;20144;-65
2022/05/07 11:34:39;;;;;;;7.05;5.30;;;;;;;23.01;35.52;97455.09;5022744;28;20056;-64
2022/05/07 11:37:22;;;;;;;6.80;4.55;;;;;;;22.69;34.54;97455.88;5038022;28;20049;-63
2022/05/07 11:39:50;;;;;;;6.68;4.03;;;;;;;22.15;36.72;97458.28;5038019;28;20057;-61
2022/05/07 11:42:29;;;;;;;5.47;4.43;;;;;;;22.74;36.11;97457.38;5023018;28;20046;-61
2022/05/07 11:45:29;;;;;;;6.13;4.28;;;;;;;22.78;35.71;97447.56;5023483;28;20408;-65
2022/05/07 11:48:14;;;;;;;9.38;4.65;;;;;;;22.76;35.17;97449.25;5023159;28;20471;-60
2022/05/07 11:50:56;;;;;;;9.75;4.35;;;;;;;23.24;34.67;97441.53;5038699;28;20049;-61
2022/05/07 11:53:35;;;;;;;5.10;4.28;;;;;;;22.44;35.75;97445.16;5040988;28;20045;-60
2022/05/07 11:56:10;;;;;;;8.27;4.50;;;;;;;22.12;35.78;97450.72;5043066;28;20060;-61
2022/05/07 11:58:44;;;;;;;9.45;4.32;;;;;;;22.59;35.82;97450.50;5046320;28;20132;-60
2022/05/07 12:01:30;;;;;;;5.32;3.80;;;;;;;22.69;33.81;97441.75;5046268;28;20063;-62
2022/05/07 12:04:07;;;;;;;9.10;4.03;;;;;;;22.65;35.01;97437.44;5046437;28;20060;-58
2022/05/07 12:06:34;;;;;;;5.85;3.70;;;;;;;22.66;33.77;97368.41;5046709;28;20145;-61
2022/05/07 12:09:15;;;;;;;5.75;3.90;;;;;;;23.41;32.79;97426.16;5046170;28;20132;-59
2022/05/07 12:11:45;;;;;;;8.35;4.53;;;;;;;23.22;32.85;97437.59;5046448;28;20526;-62
2022/05/07 12:14:12;;;;;;;7.40;4.43;;;;;;;23.18;32.09;97374.69;5034033;28;20057;-59
2022/05/07 12:19:33;;;;;;;6.87;4.50;;;;;;;24.00;32.14;97414.38;5026311;28;20517;-63
2022/05/07 12:30:21;;;;;;;5.78;3.88;;;;;;;22.73;32.45;97348.44;5026478;28;20072;-63
2022/05/07 12:32:49;;;;;;;8.20;4.57;;;;;;;23.03;32.42;97356.53;5024491;28;20068;-63
2022/05/07 12:35:16;;;;;;;7.00;4.60;;;;;;;22.92;32.71;97418.19;5026036;28;20068;-62
2022/05/07 12:37:43;;;;;;;5.20;4.00;;;;;;;23.42;32.22;97396.66;5040579;28;20124;-65
2022/05/07 12:40:12;;;;;;;7.10;4.28;;;;;;;23.67;33.26;97381.78;5030149;28;20705;-63
2022/05/07 12:42:39;;;;;;;4.97;4.07;;;;;;;23.82;32.75;97368.84;5045683;28;20525;-63
2022/05/07 12:45:09;;;;;;;8.30;4.22;;;;;;;24.69;31.09;97410.59;5044134;28;20059;-59
2022/05/07 12:47:35;;;;;;;6.15;3.67;;;;;;;25.46;29.83;97370.28;5045767;28;20045;-59
2022/05/07 12:50:03;;;;;;;10.07;5.90;;;;;;;25.73;29.59;97406.59;5045388;28;20049;-59